Rickenbacker International Airport Columbus US
ICAO: KLCK
IATA: LCK
Category: Large
Scheduled Services: No

Elevation: 744 ft
TransAlt. 18000 ft.

Airport Communications:
COLUMBUS APP:119.15
AWOS 3:132.75
COLUMBUS DEP:123.8
GND:121.85
ARNG OPS:36.7
COMD POST:23.88
RICK TWR:120.05
UNICOM:122.95

KLCK Zoom In..

If you have problems with the map follow the link
https://www.worldairports.se/pages/airport.php?
ICAO=KLCK

Runways:

(A) RW 05L length 11902 ft width 150 ft
ILS 110.55 / hdg 52

(B) RW 05R length 12102 ft width 200 ft
ILS 110.10 / hdg 52

(C) RW 23L length 12102 ft width 200 ft
ILS 110.10 / hdg 232

(D) RW 23R length 11902 ft width 150 ft
---- / hdg 232

Location; KLCK
Day. 16 / Time. 03.35 Zulu
* Altimeter: 29.94
* Temperature: 00° c. 32°f.
* Wind from: 240° Speed 08 kn.
Dewpoint: 00° c.
Visibility: 10 Statute Miles.
Clouds: Scattered 600 ft.
Clouds: Overcast 1300 ft.

KLCK 160335Z AUTO 24008KT 10SM SCT006 OVC013 00/00 A2994 RMK AO2 T00000000


Wind From 240°
Speed 08 kn.

 
 
jpsmedia.com for Web Design worldairports.se 2018   terms of use